Terminal Aerodrome Forecast
Issued by NWS Goodland, KS

Home | Current Version | Previous Version | Text Only | Print | Product List | Glossary On
Versions: 1 2 3 4 5 6 7 8 9 10 11 12 13 14 15 16 17 18 19 20 21 22 23
000
FTUS43 KGLD 301734
TAFGLD
TAF
KGLD 301734Z 3018/3118 15013G20KT P6SM FEW080
     FM310000 14008KT P6SM VCTS SCT070CB
     FM310400 16009KT P6SM SCT100
     FM311200 19006KT 6SM BR SCT250
     FM311600 14006KT P6SM SCT250=

USA.gov is the U.S. government's official web portal to all federal, state and local government web resources and services.